Time;durP1;ratioP1;P1;durP2;ratioP2;P2;SDS_P1;SDS_P2;PMS_P1;PMS_P2;Temp;Humidity;BMP_temperature;BMP_pressure;BME280_temperature;BME280_humidity;BME280_pressure;Samples;Min_cycle;Max_cycle;Signal;HPM_P1;HPM_P2
2022/12/06 00:01:45;;;;;;;8.05;4.70;;;12.50;94.00;;;;;;4994172;28;20018;-65
2022/12/06 00:04:13;;;;;;;6.28;5.20;;;12.50;94.00;;;;;;4995992;28;20546;-57
2022/12/06 00:06:47;;;;;;;7.00;5.20;;;12.50;94.00;;;;;;5013367;28;20402;-60
2022/12/06 00:09:21;;;;;;;7.13;5.38;;;12.50;94.00;;;;;;5013687;28;20681;-57
2022/12/06 00:11:47;;;;;;;7.03;5.70;;;12.50;94.00;;;;;;5013417;28;20033;-60
2022/12/06 00:14:13;;;;;;;6.65;5.60;;;12.50;94.00;;;;;;5013558;28;20497;-57
2022/12/06 00:16:39;;;;;;;6.43;4.85;;;12.50;94.10;;;;;;5013511;28;20100;-58
2022/12/06 00:19:05;;;;;;;9.10;5.88;;;12.50;94.00;;;;;;5003437;28;20110;-62
2022/12/06 00:21:35;;;;;;;6.70;5.20;;;12.60;94.00;;;;;;4993768;28;20073;-59
2022/12/06 00:24:11;;;;;;;6.30;4.75;;;12.40;94.10;;;;;;4993773;28;20029;-59
2022/12/06 00:26:39;;;;;;;7.45;5.85;;;12.50;94.10;;;;;;4993720;28;20035;-65
2022/12/06 00:29:06;;;;;;;7.65;5.30;;;12.40;94.10;;;;;;4993945;28;20018;-59
2022/12/06 00:31:33;;;;;;;7.50;5.40;;;12.50;94.00;;;;;;4993744;28;20026;-56
2022/12/06 00:34:00;;;;;;;9.02;6.10;;;12.40;94.00;;;;;;5005707;28;20037;-58
2022/12/06 00:36:28;;;;;;;6.40;5.07;;;12.40;94.00;;;;;;4996206;28;20118;-56
2022/12/06 00:38:54;;;;;;;8.38;6.03;;;12.50;94.00;;;;;;4993876;28;20027;-67
2022/12/06 00:41:24;;;;;;;9.20;5.20;;;12.40;94.00;;;;;;4993607;28;20030;-55
2022/12/06 00:43:51;;;;;;;7.32;5.40;;;12.50;94.00;;;;;;4993596;28;20490;-67
2022/12/06 00:46:21;;;;;;;7.00;5.28;;;12.50;93.90;;;;;;4993561;28;20023;-65
2022/12/06 00:48:48;;;;;;;7.85;5.45;;;12.50;94.00;;;;;;4995865;28;20491;-58
2022/12/06 00:51:15;;;;;;;6.57;5.43;;;12.50;94.00;;;;;;5013140;28;20033;-60
2022/12/06 00:53:41;;;;;;;6.38;5.38;;;12.50;94.00;;;;;;5013092;28;20478;-57
2022/12/06 00:56:07;;;;;;;7.03;5.70;;;12.40;94.00;;;;;;5013243;28;20096;-59
2022/12/06 00:58:33;;;;;;;5.97;5.30;;;12.40;94.00;;;;;;5013187;28;20493;-57
2022/12/06 01:01:15;;;;;;;6.68;5.40;;;12.50;94.00;;;;;;5012869;28;20026;-61
2022/12/06 01:03:42;;;;;;;6.78;5.18;;;12.40;94.00;;;;;;5004051;28;20109;-59
2022/12/06 01:06:11;;;;;;;7.57;5.80;;;12.40;94.00;;;;;;4992011;28;20026;-57
2022/12/06 01:08:38;;;;;;;8.27;5.30;;;12.50;94.00;;;;;;4993275;28;20031;-59
2022/12/06 01:11:04;;;;;;;6.38;4.75;;;12.50;94.00;;;;;;4993400;28;20022;-67
2022/12/06 01:13:30;;;;;;;6.35;5.57;;;12.50;94.00;;;;;;4993060;28;20039;-57
2022/12/06 01:16:02;;;;;;;7.63;5.60;;;12.40;94.10;;;;;;4993501;28;20030;-59
2022/12/06 01:18:28;;;;;;;8.48;6.28;;;12.40;94.20;;;;;;5001616;28;20038;-61
2022/12/06 01:20:54;;;;;;;6.05;5.38;;;12.40;94.10;;;;;;5012935;28;20075;-58
2022/12/06 01:23:19;;;;;;;6.25;5.65;;;12.40;94.10;;;;;;5012773;28;20041;-67
2022/12/06 01:25:52;;;;;;;8.75;5.43;;;12.40;94.00;;;;;;5001480;28;20037;-66
2022/12/06 01:28:18;;;;;;;;;;;12.30;94.20;;;;;;4993691;28;20065;-58
2022/12/06 01:30:43;;;;;;;7.25;5.55;;;12.40;94.20;;;;;;4993083;28;19948;-57
2022/12/06 01:33:09;;;;;;;9.48;5.63;;;12.50;94.10;;;;;;5004661;28;20054;-63
2022/12/06 01:35:39;;;;;;;9.63;5.70;;;12.40;94.40;;;;;;5012667;28;20022;-59
2022/12/06 01:38:05;;;;;;;8.13;5.93;;;12.20;94.20;;;;;;5012629;28;20034;-63
2022/12/06 01:40:39;;;;;;;8.68;6.05;;;12.30;94.20;;;;;;5012702;28;20363;-66
2022/12/06 01:43:25;;;;;;;7.90;5.55;;;12.30;94.20;;;;;;5012846;28;20113;-60
2022/12/06 01:45:51;;;;;;;8.48;5.70;;;12.40;94.10;;;;;;5012202;28;20026;-64
2022/12/06 01:48:17;;;;;;;7.65;5.38;;;12.40;94.00;;;;;;4997670;28;20108;-57
2022/12/06 01:50:42;;;;;;;8.07;5.00;;;12.40;94.00;;;;;;5011245;28;20109;-56
2022/12/06 01:53:10;;;;;;;6.30;5.13;;;12.40;94.10;;;;;;5012424;28;20038;-58
2022/12/06 01:55:38;;;;;;;7.72;5.68;;;12.40;94.20;;;;;;5012527;28;20022;-66
2022/12/06 01:58:14;;;;;;;7.82;5.20;;;12.30;94.10;;;;;;5011511;28;20026;-59
2022/12/06 02:00:40;;;;;;;8.77;5.85;;;12.40;94.00;;;;;;5013919;28;20026;-67
2022/12/06 02:03:10;;;;;;;8.88;5.57;;;12.40;94.00;;;;;;4996767;28;20173;-61
2022/12/06 02:05:37;;;;;;;6.45;4.88;;;12.40;94.00;;;;;;4995861;28;20434;-67
2022/12/06 02:08:03;;;;;;;9.25;5.53;;;12.40;94.00;;;;;;4996345;28;20105;-56
2022/12/06 02:10:30;;;;;;;8.27;5.63;;;12.40;94.30;;;;;;4996430;28;20038;-57
2022/12/06 02:12:57;;;;;;;8.68;6.05;;;12.40;94.00;;;;;;4996088;28;20034;-59
2022/12/06 02:15:38;;;;;;;8.10;5.93;;;12.30;94.00;;;;;;4996118;28;20026;-67
2022/12/06 02:18:14;;;;;;;8.77;6.10;;;12.40;94.00;;;;;;5015527;28;20084;-60
2022/12/06 02:20:45;;;;;;;7.97;5.95;;;12.30;94.10;;;;;;5015645;28;20022;-66
2022/12/06 02:23:46;;;;;;;8.15;5.85;;;12.30;94.00;;;;;;5015803;28;20367;-64
2022/12/06 02:26:50;;;;;;;9.98;5.40;;;12.30;94.10;;;;;;5015238;28;20066;-58
2022/12/06 02:29:22;;;;;;;9.02;5.82;;;12.30;94.00;;;;;;4992532;28;20069;-56
2022/12/06 02:31:52;;;;;;;8.63;6.00;;;12.40;93.90;;;;;;4999373;28;20056;-63
2022/12/06 02:34:41;;;;;;;10.05;6.03;;;12.30;94.00;;;;;;4995744;28;20073;-55
2022/12/06 02:37:29;;;;;;;10.77;5.95;;;12.30;94.40;;;;;;4995740;28;20038;-66
2022/12/06 02:39:57;;;;;;;12.27;6.25;;;12.40;94.00;;;;;;4995634;28;20065;-55
2022/12/06 02:42:28;;;;;;;10.85;6.38;;;12.40;93.90;;;;;;4996875;28;20023;-57
2022/12/06 02:44:56;;;;;;;10.07;5.60;;;12.30;94.10;;;;;;4995341;28;20033;-57
2022/12/06 02:47:26;;;;;;;8.55;5.78;;;12.30;94.00;;;;;;4995559;28;20057;-57
2022/12/06 02:49:54;;;;;;;9.57;5.80;;;12.30;94.00;;;;;;4995402;28;20022;-63
2022/12/06 02:52:24;;;;;;;8.68;6.00;;;12.30;94.00;;;;;;4995659;28;20105;-58
2022/12/06 02:54:53;;;;;;;9.88;5.75;;;12.30;94.00;;;;;;4995491;28;20434;-63
2022/12/06 02:57:26;;;;;;;10.80;6.22;;;12.30;94.00;;;;;;5001936;28;20057;-61
2022/12/06 02:59:53;;;;;;;7.80;5.65;;;12.30;94.00;;;;;;5012264;28;20057;-57
2022/12/06 03:02:20;;;;;;;9.32;5.75;;;12.30;94.00;;;;;;5015041;28;20022;-56
2022/12/06 03:05:07;;;;;;;7.68;5.32;;;12.40;93.80;;;;;;5014686;28;20021;-57
2022/12/06 03:07:41;;;;;;;8.43;5.55;;;12.40;93.80;;;;;;5014627;28;20030;-56
2022/12/06 03:10:25;;;;;;;8.13;6.00;;;12.40;93.80;;;;;;5014808;28;20033;-58
2022/12/06 03:13:05;;;;;;;8.75;5.40;;;12.30;93.80;;;;;;5010467;28;20070;-56
2022/12/06 03:15:46;;;;;;;8.98;6.03;;;12.30;93.90;;;;;;4994986;28;20068;-57
2022/12/06 03:18:19;;;;;;;9.38;5.55;;;12.20;94.00;;;;;;4995053;28;20023;-57
2022/12/06 03:20:55;;;;;;;10.52;5.65;;;12.20;94.10;;;;;;4994804;28;20084;-57
2022/12/06 03:23:27;;;;;;;7.38;5.63;;;12.30;94.20;;;;;;4993704;28;20022;-55
2022/12/06 03:25:56;;;;;;;8.43;5.43;;;12.30;93.80;;;;;;4994860;28;20030;-56
2022/12/06 03:28:23;;;;;;;9.25;5.75;;;12.30;94.20;;;;;;5004381;28;20403;-56
2022/12/06 03:30:51;;;;;;;8.32;4.95;;;12.20;93.90;;;;;;5014139;28;20514;-58
2022/12/06 03:33:21;;;;;;;8.15;5.38;;;12.30;93.90;;;;;;5014259;28;20034;-58
2022/12/06 03:35:50;;;;;;;10.57;5.32;;;12.20;93.90;;;;;;5010682;28;20040;-57
2022/12/06 03:38:24;;;;;;;8.88;5.53;;;12.20;93.90;;;;;;5006499;28;20032;-57
2022/12/06 03:40:52;;;;;;;9.23;5.90;;;12.20;93.80;;;;;;4998926;28;20026;-56
2022/12/06 03:43:18;;;;;;;10.18;5.72;;;12.20;93.90;;;;;;4992526;28;20034;-58
2022/12/06 03:45:52;;;;;;;9.45;5.80;;;12.20;93.80;;;;;;4993221;28;20026;-58
2022/12/06 03:48:24;;;;;;;8.27;5.35;;;12.20;93.90;;;;;;4994463;28;20026;-56
2022/12/06 03:50:56;;;;;;;10.18;5.90;;;12.30;93.70;;;;;;4994389;28;20387;-57
2022/12/06 03:53:22;;;;;;;;;;;12.20;93.80;;;;;;4994624;28;20498;-57
2022/12/06 03:55:47;;;;;;;9.80;5.25;;;12.20;93.80;;;;;;4996326;28;20004;-57
2022/12/06 03:58:13;;;;;;;13.05;6.03;;;12.00;93.80;;;;;;5013828;28;20030;-56
2022/12/06 04:00:39;;;;;;;12.40;6.43;;;12.10;93.90;;;;;;5013816;28;20033;-58
2022/12/06 04:03:04;;;;;;;7.70;5.95;;;12.00;93.90;;;;;;5013819;28;20018;-58
2022/12/06 04:05:30;;;;;;;9.75;5.55;;;12.00;93.90;;;;;;5013388;28;20037;-57
2022/12/06 04:07:56;;;;;;;6.90;4.60;;;12.10;93.80;;;;;;5013679;28;20030;-58
2022/12/06 04:10:21;;;;;;;9.55;5.47;;;12.00;93.80;;;;;;5011793;28;20061;-55
2022/12/06 04:12:59;;;;;;;9.02;5.97;;;12.20;93.80;;;;;;4998841;28;20040;-57
2022/12/06 04:15:30;;;;;;;6.97;4.70;;;12.20;93.70;;;;;;5013569;28;20026;-54
2022/12/06 04:18:17;;;;;;;9.30;5.28;;;12.20;93.70;;;;;;5011883;28;20021;-56
2022/12/06 04:23:37;;;;;;;8.57;5.28;;;12.10;93.70;;;;;;5012875;28;20075;-57
2022/12/06 04:26:05;;;;;;;7.07;5.30;;;12.10;93.70;;;;;;5000451;28;20054;-57
2022/12/06 04:39:28;;;;;;;8.27;5.32;;;12.10;93.60;;;;;;4994712;28;20121;-58
2022/12/06 04:44:39;;;;;;;8.35;5.25;;;11.90;93.80;;;;;;5013518;28;20034;-57
2022/12/06 04:47:05;;;;;;;10.65;5.25;;;11.90;93.90;;;;;;5006855;28;20105;-59
2022/12/06 04:49:31;;;;;;;8.15;5.32;;;11.90;93.80;;;;;;4993700;28;20445;-57
2022/12/06 04:51:57;;;;;;;7.97;5.05;;;12.00;93.80;;;;;;4993271;28;20506;-60
2022/12/06 04:54:23;;;;;;;7.88;4.93;;;11.90;93.80;;;;;;4998791;28;20066;-62
2022/12/06 04:56:49;;;;;;;11.82;4.85;;;11.90;93.90;;;;;;5010798;28;20080;-63
2022/12/06 04:59:14;;;;;;;9.88;4.93;;;11.80;94.00;;;;;;5011071;28;20030;-57
2022/12/06 05:01:40;;;;;;;5.88;4.63;;;11.90;93.90;;;;;;5006365;28;20072;-57
2022/12/06 05:04:06;;;;;;;12.18;5.50;;;12.00;94.00;;;;;;5012782;28;20038;-57
2022/12/06 05:06:31;;;;;;;9.48;4.82;;;12.00;93.70;;;;;;5012445;28;20395;-58
2022/12/06 05:08:57;;;;;;;7.93;4.90;;;12.00;93.60;;;;;;4999785;28;20030;-63
2022/12/06 05:11:22;;;;;;;11.52;4.93;;;12.00;93.70;;;;;;5003869;28;20033;-59
2022/12/06 05:13:48;;;;;;;11.02;5.65;;;11.90;93.70;;;;;;5012535;28;20038;-58
2022/12/06 05:16:14;;;;;;;8.63;4.28;;;12.00;93.70;;;;;;5012469;28;20026;-58
2022/12/06 05:18:40;;;;;;;6.60;3.95;;;12.50;93.10;;;;;;5002892;28;20039;-59
2022/12/06 05:21:09;;;;;;;10.90;4.13;;;12.80;92.30;;;;;;5012956;28;20033;-63
2022/12/06 05:23:35;;;;;;;7.32;3.75;;;12.90;92.20;;;;;;5012243;28;20171;-60
2022/12/06 05:26:07;;;;;;;9.18;3.53;;;12.90;92.10;;;;;;5012697;28;20054;-59
2022/12/06 05:28:33;;;;;;;7.63;4.35;;;12.90;92.20;;;;;;5008862;28;20529;-64
2022/12/06 05:30:59;;;;;;;9.10;4.18;;;12.90;92.00;;;;;;5000372;28;20034;-61
2022/12/06 05:33:25;;;;;;;7.22;4.35;;;13.00;92.00;;;;;;5012156;28;20041;-60
2022/12/06 05:35:51;;;;;;;6.35;4.10;;;13.00;92.00;;;;;;5015488;28;20029;-61
2022/12/06 05:38:18;;;;;;;7.47;3.78;;;13.00;91.90;;;;;;5015472;28;20041;-59
2022/12/06 05:40:44;;;;;;;6.88;4.22;;;12.90;91.90;;;;;;5016319;28;20097;-60
2022/12/06 05:43:10;;;;;;;7.60;4.18;;;12.90;91.80;;;;;;5016306;28;20109;-59
2022/12/06 05:45:36;;;;;;;7.40;4.50;;;12.90;91.80;;;;;;5012734;28;20505;-58
2022/12/06 05:48:03;;;;;;;7.38;4.28;;;13.00;91.80;;;;;;5014383;28;20438;-59
2022/12/06 05:50:28;;;;;;;7.43;3.97;;;13.00;91.80;;;;;;5014908;28;20091;-59
2022/12/06 05:52:55;;;;;;;8.50;4.60;;;12.90;91.70;;;;;;5014597;28;20422;-60
2022/12/06 05:55:21;;;;;;;6.75;4.25;;;12.90;91.80;;;;;;5016117;28;20030;-59
2022/12/06 05:57:47;;;;;;;5.18;4.00;;;12.90;91.80;;;;;;5016008;28;20533;-58
2022/12/06 06:00:14;;;;;;;8.25;5.00;;;12.90;91.70;;;;;;5014886;28;20043;-65
2022/12/06 06:02:40;;;;;;;8.07;4.10;;;12.80;91.70;;;;;;4999366;28;20034;-62
2022/12/06 06:05:06;;;;;;;7.50;4.18;;;12.80;91.80;;;;;;5006019;28;20100;-59
2022/12/06 06:07:32;;;;;;;10.43;4.30;;;12.80;91.70;;;;;;5009658;28;20739;-58
2022/12/06 06:09:57;;;;;;;9.40;4.60;;;12.80;91.80;;;;;;5012929;28;20029;-59
2022/12/06 06:12:23;;;;;;;7.72;4.00;;;12.80;91.70;;;;;;5015808;28;20030;-59
2022/12/06 06:14:48;;;;;;;12.23;4.65;;;12.90;91.70;;;;;;5014853;28;20603;-65
2022/12/06 06:17:14;;;;;;;6.85;4.30;;;12.90;91.60;;;;;;5013521;28;20038;-62
2022/12/06 06:19:40;;;;;;;8.38;4.40;;;12.90;91.70;;;;;;5013312;28;20026;-57
2022/12/06 06:22:06;;;;;;;8.45;4.70;;;12.70;91.50;;;;;;5012448;28;20026;-54
2022/12/06 06:24:40;;;;;;;11.20;5.43;;;12.20;92.20;;;;;;5012549;28;20026;-57
2022/12/06 06:27:06;;;;;;;10.75;4.65;;;12.10;92.30;;;;;;5016875;28;20025;-58
2022/12/06 06:29:32;;;;;;;12.13;4.55;;;12.10;92.20;;;;;;5016537;28;20227;-57
2022/12/06 06:31:57;;;;;;;15.38;5.68;;;12.20;92.00;;;;;;5008202;28;20022;-57
2022/12/06 06:34:24;;;;;;;15.70;5.40;;;12.10;92.30;;;;;;5008554;28;20080;-57
2022/12/06 06:36:50;;;;;;;13.48;4.63;;;12.40;91.90;;;;;;5011068;28;20034;-57
2022/12/06 06:39:17;;;;;;;10.77;4.57;;;12.40;91.50;;;;;;5010149;28;20502;-60
2022/12/06 06:41:43;;;;;;;16.10;5.63;;;12.10;92.00;;;;;;5012425;28;20130;-58
2022/12/06 06:44:09;;;;;;;15.57;4.97;;;12.00;92.30;;;;;;5014067;28;20033;-57
2022/12/06 06:46:35;;;;;;;11.75;5.18;;;12.10;92.20;;;;;;5010541;28;20030;-60
2022/12/06 06:49:01;;;;;;;14.00;4.50;;;12.20;92.00;;;;;;5015837;28;20476;-64
2022/12/06 06:51:26;;;;;;;1999.90;907.88;;;12.30;91.90;;;;;;5028992;28;20026;-64
2022/12/06 06:53:52;;;;;;;1999.90;969.17;;;12.10;92.20;;;;;;5013550;28;20054;-57
2022/12/06 06:56:19;;;;;;;428.95;92.68;;;12.10;92.50;;;;;;5018469;28;20415;-56
2022/12/06 06:58:45;;;;;;;135.02;23.05;;;11.80;92.80;;;;;;5021422;28;20030;-66
2022/12/06 07:01:18;;;;;;;139.63;24.00;;;11.80;92.90;;;;;;5005402;28;20356;-52
2022/12/06 07:03:43;;;;;;;99.70;17.48;;;11.80;93.00;;;;;;5009320;28;20030;-55
2022/12/06 07:06:10;;;;;;;105.80;17.75;;;11.80;93.00;;;;;;5004254;28;20100;-59
2022/12/06 07:08:37;;;;;;;90.85;16.98;;;11.60;93.40;;;;;;5012621;28;20108;-58
2022/12/06 07:11:03;;;;;;;188.85;30.25;;;11.80;93.20;;;;;;5010802;28;20030;-55
2022/12/06 07:13:30;;;;;;;93.35;18.52;;;11.70;93.40;;;;;;5008678;28;20040;-59
2022/12/06 07:15:57;;;;;;;92.25;19.35;;;11.80;93.30;;;;;;5017021;28;20034;-56
2022/12/06 07:18:24;;;;;;;110.78;20.20;;;11.60;93.50;;;;;;5007847;28;20100;-56
2022/12/06 07:20:59;;;;;;;85.55;15.80;;;11.70;93.60;;;;;;5011350;28;20052;-54
2022/12/06 07:23:25;;;;;;;76.50;15.05;;;11.60;93.60;;;;;;5011943;28;20026;-59
2022/12/06 07:26:05;;;;;;;76.70;15.35;;;11.60;93.70;;;;;;5008429;28;20030;-65
2022/12/06 07:28:33;;;;;;;156.82;26.40;;;11.60;93.80;;;;;;5010783;28;20052;-68
2022/12/06 07:31:07;;;;;;;71.68;15.48;;;11.90;93.60;;;;;;5012608;28;20029;-63
2022/12/06 07:33:33;;;;;;;20.20;7.68;;;11.90;93.00;;;;;;5009875;28;20044;-53
2022/12/06 07:35:59;;;;;;;20.30;7.25;;;11.80;93.10;;;;;;5009654;28;20116;-53
2022/12/06 07:38:24;;;;;;;23.30;8.10;;;11.70;93.40;;;;;;5010831;28;20030;-54
2022/12/06 07:40:50;;;;;;;19.80;7.03;;;11.60;93.40;;;;;;5011817;28;20029;-55
2022/12/06 07:46:00;;;;;;;21.33;6.68;;;11.50;93.40;;;;;;5013203;28;20045;-54
2022/12/06 07:48:25;;;;;;;14.23;6.22;;;11.50;93.40;;;;;;5006602;28;20026;-55
2022/12/06 07:50:51;;;;;;;22.63;7.22;;;11.60;93.40;;;;;;4995707;28;20529;-51
2022/12/06 07:53:17;;;;;;;14.35;7.22;;;11.50;93.40;;;;;;5000584;28;20029;-53
2022/12/06 07:55:43;;;;;;;21.23;6.85;;;11.50;93.40;;;;;;5006120;28;20026;-52
2022/12/06 07:58:09;;;;;;;16.23;6.10;;;11.80;93.20;;;;;;5008758;28;20534;-56
2022/12/06 08:00:36;;;;;;;17.98;6.47;;;11.90;92.90;;;;;;5010501;28;20021;-58
2022/12/06 08:03:02;;;;;;;14.65;6.28;;;11.70;93.20;;;;;;4999248;28;20041;-56
2022/12/06 08:05:28;;;;;;;9.88;6.47;;;11.70;93.10;;;;;;5008511;28;20022;-56
2022/12/06 08:07:53;;;;;;;12.13;5.47;;;11.70;93.30;;;;;;5009550;28;20044;-55
2022/12/06 08:10:19;;;;;;;14.73;5.82;;;11.60;93.50;;;;;;5004216;28;20171;-57
2022/12/06 08:12:45;;;;;;;11.90;5.50;;;11.50;93.60;;;;;;5007402;28;20108;-55
2022/12/06 08:15:13;;;;;;;12.13;5.43;;;11.50;93.70;;;;;;5001547;28;20046;-56
2022/12/06 08:17:40;;;;;;;9.52;5.40;;;11.70;93.40;;;;;;5011706;28;20026;-58
2022/12/06 08:20:07;;;;;;;10.73;5.00;;;11.80;93.30;;;;;;5011476;28;20034;-57
2022/12/06 08:22:33;;;;;;;31.83;21.83;;;11.80;93.40;;;;;;5010780;28;20041;-50
2022/12/06 08:24:59;;;;;;;9.93;6.07;;;11.70;93.40;;;;;;5010792;28;20030;-57
2022/12/06 08:27:25;;;;;;;9.68;5.13;;;11.70;93.40;;;;;;4999979;28;20022;-49
2022/12/06 08:29:51;;;;;;;11.15;5.68;;;11.70;93.50;;;;;;5009124;28;20036;-54
2022/12/06 08:32:17;;;;;;;8.85;5.28;;;11.70;93.70;;;;;;5009547;28;20033;-65
2022/12/06 08:34:43;;;;;;;10.70;4.80;;;11.70;93.60;;;;;;5007942;28;20471;-67
2022/12/06 08:37:09;;;;;;;9.70;5.28;;;11.70;93.60;;;;;;5005958;28;20105;-68
2022/12/06 08:39:35;;;;;;;7.95;4.82;;;11.70;93.60;;;;;;5006737;28;20037;-66
2022/12/06 08:42:05;;;;;;;7.78;4.53;;;11.70;93.70;;;;;;5012733;28;20022;-60
2022/12/06 08:44:31;;;;;;;11.95;4.97;;;11.70;93.70;;;;;;5009388;28;20022;-62
2022/12/06 08:46:59;;;;;;;11.60;5.93;;;11.80;93.70;;;;;;5011687;28;20044;-65
2022/12/06 08:49:26;;;;;;;9.68;4.78;;;11.80;93.70;;;;;;4993670;28;20118;-61
2022/12/06 08:51:52;;;;;;;409.48;347.38;;;11.80;93.70;;;;;;5010836;28;20034;-61
2022/12/06 08:54:23;;;;;;;41.30;27.23;;;11.80;93.80;;;;;;5000349;28;20038;-62
2022/12/06 08:56:50;;;;;;;17.73;8.63;;;11.70;93.80;;;;;;5003620;28;20117;-61
2022/12/06 09:01:45;;;;;;;9.90;5.35;;;11.80;93.80;;;;;;5028662;23;20076;-68
2022/12/06 09:04:11;;;;;;;13.65;5.95;;;11.80;93.70;;;;;;4992745;28;20364;-68
2022/12/06 09:06:39;;;;;;;10.75;5.40;;;11.80;93.60;;;;;;5012779;28;20180;-68
2022/12/06 09:09:06;;;;;;;8.52;5.13;;;11.90;93.50;;;;;;4998977;28;20029;-68
2022/12/06 09:11:32;;;;;;;10.07;5.13;;;11.80;93.60;;;;;;4996588;28;20049;-68
2022/12/06 09:13:58;;;;;;;10.30;5.00;;;11.80;93.70;;;;;;4996660;28;20046;-68
2022/12/06 09:16:24;;;;;;;6.70;4.80;;;11.70;93.90;;;;;;4994661;28;20034;-68
2022/12/06 09:18:50;;;;;;;8.18;5.25;;;11.70;93.80;;;;;;4994721;28;20499;-68
2022/12/06 09:21:23;;;;;;;9.10;5.65;;;11.70;93.80;;;;;;4994532;28;20030;-68
2022/12/06 09:23:48;;;;;;;;;;;11.70;93.80;;;;;;4994111;28;20038;-68
2022/12/06 09:28:50;;;;;;;17.50;5.53;;;11.70;93.90;;;;;;5713440;22;20052;-67
2022/12/06 09:33:41;;;;;;;14.52;6.10;;;11.70;94.00;;;;;;5051753;22;20493;-66
2022/12/06 09:36:13;;;;;;;10.52;5.60;;;11.70;94.00;;;;;;5039720;28;20025;-63
2022/12/06 09:38:40;;;;;;;13.57;5.97;;;11.60;93.90;;;;;;5049394;28;20606;-69
2022/12/06 09:41:30;;;;;;;30.73;7.20;;;11.80;93.50;;;;;;5051027;28;20052;-66
2022/12/06 09:44:17;;;;;;;11.52;5.70;;;11.70;93.80;;;;;;5051473;28;20024;-66
2022/12/06 09:46:54;;;;;;;39.63;7.72;;;11.40;94.10;;;;;;5054304;28;20017;-67
2022/12/06 09:49:22;;;;;;;15.30;7.10;;;11.40;94.10;;;;;;5053216;28;20039;-67
2022/12/06 09:52:06;;;;;;;18.02;6.53;;;11.50;94.10;;;;;;5051737;28;20473;-64
2022/12/06 09:54:50;;;;;;;15.75;6.05;;;11.40;94.20;;;;;;5049686;28;20116;-68
2022/12/06 10:11:09;;;;;;;35.00;7.22;;;11.70;94.20;;;;;;5050218;22;20051;-62
2022/12/06 10:13:58;;;;;;;24.15;6.35;;;11.90;94.20;;;;;;4982220;28;20573;-63
2022/12/06 10:16:27;;;;;;;65.78;9.57;;;11.80;94.20;;;;;;4999293;28;20033;-65
2022/12/06 10:19:07;;;;;;;22.63;5.60;;;11.70;94.30;;;;;;5001738;28;20022;-64
2022/12/06 10:22:03;;;;;;;17.20;5.85;;;11.70;94.30;;;;;;4989898;28;20437;-65
2022/12/06 10:24:55;;;;;;;19.85;5.72;;;11.70;94.40;;;;;;5001031;28;20037;-65
2022/12/06 10:27:37;;;;;;;22.70;5.78;;;11.80;94.40;;;;;;5001156;28;20022;-66
2022/12/06 10:30:09;;;;;;;23.15;5.72;;;11.90;94.40;;;;;;4998298;28;20540;-65
2022/12/06 10:32:54;;;;;;;135.27;21.02;;;11.90;94.30;;;;;;4990567;28;20518;-65
2022/12/06 10:35:48;;;;;;;30.65;6.93;;;11.90;94.20;;;;;;4981867;28;20026;-68
2022/12/06 10:38:25;;;;;;;29.23;6.63;;;12.00;94.20;;;;;;4986542;28;20466;-65
2022/12/06 10:41:04;;;;;;;20.75;6.28;;;12.00;94.10;;;;;;4986189;28;20084;-66
2022/12/06 10:43:51;;;;;;;20.90;4.78;;;12.10;94.00;;;;;;4986672;28;20137;-65
2022/12/06 10:49:38;;;;;;;15.55;5.25;;;12.10;93.50;;;;;;4988345;28;20064;-66
2022/12/06 10:52:37;;;;;;;15.48;5.32;;;12.10;93.50;;;;;;4996344;28;20723;-66
2022/12/06 10:55:09;;;;;;;310.50;32.72;;;12.10;93.70;;;;;;4987267;28;20165;-66
2022/12/06 10:57:55;;;;;;;24.63;4.45;;;12.20;93.30;;;;;;4983621;28;20033;-65
2022/12/06 11:00:26;;;;;;;16.67;4.65;;;12.20;93.10;;;;;;4988894;28;20530;-66
2022/12/06 11:03:09;;;;;;;32.97;4.43;;;12.20;93.30;;;;;;4989366;28;20046;-65
2022/12/06 11:05:40;;;;;;;25.70;5.10;;;12.20;93.40;;;;;;4990794;28;20142;-65
2022/12/06 11:08:16;;;;;;;21.40;4.18;;;12.30;93.30;;;;;;4983784;28;20059;-65
2022/12/06 11:10:44;;;;;;;13.98;4.05;;;12.30;93.10;;;;;;4988832;28;20450;-67
2022/12/06 11:13:33;;;;;;;35.95;6.10;;;12.30;92.80;;;;;;4971178;28;20465;-66
2022/12/06 11:16:05;;;;;;;29.02;5.50;;;12.30;92.90;;;;;;4986037;28;20034;-64
2022/12/06 11:18:32;;;;;;;36.45;6.78;;;12.40;93.30;;;;;;4994296;28;20116;-65
2022/12/06 11:21:05;;;;;;;32.42;6.07;;;12.50;93.60;;;;;;4994473;28;20033;-66
2022/12/06 11:23:48;;;;;;;33.78;6.05;;;12.60;93.50;;;;;;5011988;28;20030;-65
2022/12/06 11:26:34;;;;;;;33.50;6.43;;;12.60;93.30;;;;;;4975427;28;20070;-65
2022/12/06 11:29:08;;;;;;;30.17;5.95;;;12.70;93.10;;;;;;4993629;28;20128;-64
2022/12/06 11:31:36;;;;;;;36.92;6.53;;;12.70;93.60;;;;;;4987829;28;20053;-64
2022/12/06 11:34:05;;;;;;;131.85;17.65;;;12.70;93.50;;;;;;4982650;28;20026;-65
2022/12/06 11:36:31;;;;;;;28.25;5.28;;;13.00;93.60;;;;;;4989391;28;20411;-65
2022/12/06 11:38:58;;;;;;;26.08;4.97;;;13.10;93.40;;;;;;4989175;28;20066;-65
2022/12/06 11:41:32;;;;;;;29.63;5.05;;;13.30;93.60;;;;;;4993649;28;20038;-66
2022/12/06 11:43:58;;;;;;;24.48;4.88;;;13.40;93.30;;;;;;4991350;28;20015;-67
2022/12/06 11:46:24;;;;;;;23.58;3.70;;;13.60;93.40;;;;;;4976622;28;20364;-65
2022/12/06 11:48:50;;;;;;;18.95;4.13;;;13.40;91.60;;;;;;4992801;28;20084;-66
2022/12/06 11:51:22;;;;;;;12.75;3.28;;;13.40;91.90;;;;;;4991230;28;20446;-65
2022/12/06 11:53:57;;;;;;;;;;;13.40;91.80;;;;;;4985893;28;20043;-64
2022/12/06 11:56:26;;;;;;;8.25;2.25;;;13.40;91.80;;;;;;4989178;28;19909;-65
2022/12/06 11:59:10;;;;;;;10.18;1.98;;;13.30;90.60;;;;;;4998339;28;20027;-65
2022/12/06 12:01:41;;;;;;;10.73;2.30;;;13.30;90.80;;;;;;4989838;28;20037;-68
2022/12/06 12:04:41;;;;;;;8.77;2.22;;;13.40;90.60;;;;;;4985645;28;20033;-70
2022/12/06 12:07:16;;;;;;;11.07;2.05;;;13.10;90.00;;;;;;4987267;28;20077;-69
2022/12/06 12:09:53;;;;;;;12.15;2.47;;;13.30;89.80;;;;;;4991807;28;20077;-69
2022/12/06 12:12:22;;;;;;;15.13;3.17;;;13.30;90.20;;;;;;4997263;28;20064;-69
2022/12/06 12:14:57;;;;;;;26.77;3.20;;;13.40;90.30;;;;;;5004276;28;20117;-69
2022/12/06 12:17:29;;;;;;;19.40;2.80;;;13.40;90.40;;;;;;4976884;28;20041;-68
2022/12/06 12:20:04;;;;;;;17.73;1.77;;;13.20;90.00;;;;;;4976430;28;20126;-67
2022/12/06 12:22:41;;;;;;;15.30;2.28;;;13.10;88.90;;;;;;4982971;28;20034;-68
2022/12/06 12:25:34;;;;;;;16.92;2.17;;;13.20;90.10;;;;;;4990471;28;20026;-68
2022/12/06 12:28:01;;;;;;;19.70;3.28;;;13.30;90.50;;;;;;4976024;28;20031;-72
2022/12/06 12:30:35;;;;;;;12.10;2.60;;;13.40;90.30;;;;;;4981880;28;20066;-68
2022/12/06 12:33:09;;;;;;;16.42;5.00;;;13.20;89.90;;;;;;4984657;28;20036;-68
2022/12/06 12:35:37;;;;;;;10.95;1.50;;;13.10;89.30;;;;;;4984971;28;20030;-68
2022/12/06 12:38:11;;;;;;;14.95;2.80;;;13.00;88.60;;;;;;4991974;28;20105;-68
2022/12/06 12:40:44;;;;;;;14.48;2.35;;;13.00;88.80;;;;;;4972945;28;20072;-69
2022/12/06 12:43:12;;;;;;;15.70;3.03;;;13.00;88.70;;;;;;4992546;28;20082;-68
2022/12/06 12:45:40;;;;;;;15.23;2.88;;;13.20;89.00;;;;;;4996845;28;20030;-68
2022/12/06 12:48:22;;;;;;;15.90;3.40;;;13.30;88.90;;;;;;4976508;28;20037;-67
2022/12/06 12:50:59;;;;;;;7.43;2.35;;;13.30;88.20;;;;;;4986501;28;20105;-68
2022/12/06 12:53:37;;;;;;;9.20;1.63;;;13.10;87.50;;;;;;4989357;28;20575;-69
2022/12/06 12:56:18;;;;;;;7.40;1.55;;;13.00;88.00;;;;;;4984908;28;20034;-69
2022/12/06 12:58:46;;;;;;;6.90;2.05;;;13.00;88.20;;;;;;4988258;28;20065;-69
2022/12/06 13:01:24;;;;;;;9.85;2.50;;;12.90;88.60;;;;;;4986487;28;20034;-69
2022/12/06 13:04:27;;;;;;;8.80;1.45;;;13.00;89.00;;;;;;4987614;28;20410;-69
2022/12/06 13:06:52;;;;;;;;;;;13.10;89.20;;;;;;5008695;28;20030;-66
2022/12/06 13:09:44;;;;;;;8.30;2.10;;;13.30;88.50;;;;;;4995906;28;19913;-70
2022/12/06 13:12:19;;;;;;;12.07;1.83;;;13.10;87.80;;;;;;4983950;28;20108;-69
2022/12/06 13:15:03;;;;;;;150.00;18.55;;;13.30;88.40;;;;;;4997646;28;20102;-69
2022/12/06 13:17:32;;;;;;;20.80;2.67;;;13.40;89.50;;;;;;4983341;28;20027;-69
2022/12/06 13:19:58;;;;;;;5.50;1.60;;;13.50;88.80;;;;;;4983862;28;20037;-69
2022/12/06 13:22:28;;;;;;;5.30;1.48;;;13.40;88.20;;;;;;4987630;28;20023;-69
2022/12/06 13:25:00;;;;;;;6.78;1.33;;;13.30;87.50;;;;;;4987107;28;20543;-69
2022/12/06 13:27:28;;;;;;;;;;;13.40;87.30;;;;;;4989337;28;20042;-69
2022/12/06 13:29:57;;;;;;;7.25;1.63;;;13.50;87.40;;;;;;4978932;28;19937;-73
2022/12/06 13:32:38;;;;;;;15.77;2.97;;;13.50;88.00;;;;;;4973466;28;20026;-69
2022/12/06 13:35:32;;;;;;;53.65;8.38;;;13.20;88.40;;;;;;4974756;28;20030;-67
2022/12/06 13:38:18;;;;;;;71.20;7.53;;;13.30;88.60;;;;;;4974947;28;20062;-70
2022/12/06 13:40:46;;;;;;;12.43;2.20;;;13.30;88.70;;;;;;4981914;28;20129;-67
2022/12/06 13:43:24;;;;;;;31.42;5.07;;;13.30;89.10;;;;;;4980411;28;20053;-67
2022/12/06 13:45:53;;;;;;;9.35;2.28;;;13.60;88.90;;;;;;4985360;28;20483;-69